Time;durP1;ratioP1;P1;durP2;ratioP2;P2;SDS_P1;SDS_P2;PMS_P1;PMS_P2;Temp;Humidity;BMP_temperature;BMP_pressure;BME280_temperature;BME280_humidity;BME280_pressure;Samples;Min_cycle;Max_cycle;Signal;HPM_P1;HPM_P2
2022/09/25 00:00:42;;;;;;;4.68;1.30;;;13.00;99.90;;;;;;6220438;22;20020;-81
2022/09/25 00:03:12;;;;;;;1.60;0.88;;;12.90;99.90;;;;;;6244137;22;20055;-81
2022/09/25 00:05:39;;;;;;;4.75;1.45;;;12.20;99.90;;;;;;6220550;22;20026;-83
2022/09/25 00:10:47;;;;;;;3.28;1.00;;;12.80;99.90;;;;;;6229390;22;20024;-74
2022/09/25 00:13:14;;;;;;;4.97;1.10;;;12.80;99.90;;;;;;6245307;22;20143;-76
2022/09/25 00:15:48;;;;;;;2.42;0.90;;;12.70;99.90;;;;;;6244592;22;20020;-76
2022/09/25 00:18:14;;;;;;;6.57;1.05;;;12.60;99.90;;;;;;6219546;22;20016;-76
2022/09/25 00:20:40;;;;;;;3.25;1.27;;;12.50;99.90;;;;;;6245657;22;20042;-76
2022/09/25 00:23:06;;;;;;;4.82;1.00;;;12.50;99.90;;;;;;6219715;22;20026;-76
2022/09/25 00:25:32;;;;;;;3.22;1.05;;;12.40;99.90;;;;;;6272302;22;20027;-76
2022/09/25 00:27:58;;;;;;;4.18;1.00;;;12.40;99.90;;;;;;6220781;22;20026;-76
2022/09/25 00:30:23;;;;;;;4.10;1.02;;;12.40;99.90;;;;;;6245437;22;20114;-76
2022/09/25 00:32:49;;;;;;;2.95;0.90;;;12.40;99.90;;;;;;6245808;22;20113;-76
2022/09/25 00:35:15;;;;;;;5.40;1.63;;;12.30;99.90;;;;;;6244755;22;20020;-77
2022/09/25 00:37:41;;;;;;;4.38;1.13;;;12.30;99.90;;;;;;6244961;22;20454;-76
2022/09/25 00:40:07;;;;;;;4.32;1.48;;;12.30;99.90;;;;;;6219565;22;20035;-76
2022/09/25 00:42:35;;;;;;;4.88;1.02;;;12.30;99.90;;;;;;6245919;22;20016;-76
2022/09/25 00:45:15;;;;;;;4.53;0.85;;;12.30;99.90;;;;;;6246605;22;20115;-76
2022/09/25 00:48:00;;;;;;;4.43;1.08;;;12.30;99.90;;;;;;6220408;22;20027;-76
2022/09/25 00:50:35;;;;;;;3.67;0.85;;;12.30;99.90;;;;;;6220107;22;20101;-76
2022/09/25 00:53:25;;;;;;;3.40;0.82;;;12.30;99.90;;;;;;6273521;22;20019;-76
2022/09/25 00:55:51;;;;;;;4.25;0.90;;;12.30;99.90;;;;;;6272534;22;20024;-76
2022/09/25 00:58:22;;;;;;;7.05;1.50;;;12.30;99.90;;;;;;6272458;22;20041;-76
2022/09/25 01:00:49;;;;;;;6.72;1.27;;;12.40;99.90;;;;;;6220714;22;20023;-75
2022/09/25 01:03:16;;;;;;;6.05;1.50;;;12.40;99.90;;;;;;6272838;22;20082;-75
2022/09/25 01:05:44;;;;;;;6.40;1.30;;;12.50;99.90;;;;;;6220254;22;20042;-75
2022/09/25 01:08:18;;;;;;;3.97;1.00;;;12.50;99.90;;;;;;6218527;22;20020;-76
2022/09/25 01:10:44;;;;;;;8.70;1.35;;;12.50;99.90;;;;;;6271357;22;20020;-75
2022/09/25 01:13:12;;;;;;;10.23;1.80;;;12.50;99.90;;;;;;6245323;22;20073;-75
2022/09/25 01:15:47;;;;;;;3.75;1.02;;;12.50;99.90;;;;;;6272304;22;20073;-76
2022/09/25 01:18:36;;;;;;;3.00;0.95;;;12.50;99.90;;;;;;6245223;22;20012;-76
2022/09/25 01:21:02;;;;;;;2.67;0.80;;;12.50;99.90;;;;;;6245697;22;20011;-75
2022/09/25 01:23:59;;;;;;;3.95;0.77;;;12.50;99.90;;;;;;6245177;22;20122;-76
2022/09/25 01:26:35;;;;;;;;;;;12.40;99.90;;;;;;6244630;22;20020;-76
2022/09/25 01:29:29;;;;;;;3.70;0.98;;;12.40;99.90;;;;;;6245128;22;19919;-76
2022/09/25 01:32:06;;;;;;;3.33;0.93;;;12.40;99.90;;;;;;6245107;22;20069;-76
2022/09/25 01:34:50;;;;;;;1.67;0.70;;;12.30;99.90;;;;;;6218438;22;20077;-76
2022/09/25 01:37:48;;;;;;;1.95;0.70;;;12.30;99.90;;;;;;6219012;22;20053;-76
2022/09/25 01:40:32;;;;;;;2.63;0.90;;;12.30;99.90;;;;;;6137093;22;20024;-76
2022/09/25 01:43:13;;;;;;;3.00;1.00;;;12.20;99.90;;;;;;6244871;22;20019;-76
2022/09/25 01:45:48;;;;;;;2.65;0.93;;;12.20;99.90;;;;;;6218820;22;20029;-76
2022/09/25 01:48:18;;;;;;;3.47;1.02;;;12.20;99.90;;;;;;6244039;22;20077;-76
2022/09/25 01:50:49;;;;;;;3.60;1.17;;;12.20;99.90;;;;;;6244108;22;20059;-75
2022/09/25 01:53:24;;;;;;;6.88;1.77;;;12.20;99.90;;;;;;6244037;22;20028;-76
2022/09/25 01:55:56;;;;;;;4.60;1.20;;;11.10;99.90;;;;;;6218937;22;20023;-76
2022/09/25 01:58:30;;;;;;;5.85;1.40;;;12.20;99.90;;;;;;6244952;22;20019;-76
2022/09/25 02:01:05;;;;;;;6.60;1.55;;;12.20;99.90;;;;;;6244893;22;20442;-76
2022/09/25 02:03:59;;;;;;;3.53;1.23;;;12.20;99.90;;;;;;6244754;22;20020;-76
2022/09/25 02:06:25;;;;;;;3.08;1.23;;;12.20;99.90;;;;;;6229409;22;20022;-76
2022/09/25 02:09:00;;;;;;;3.10;0.88;;;12.10;99.90;;;;;;6219969;22;20015;-76
2022/09/25 02:11:49;;;;;;;4.13;1.10;;;12.10;99.90;;;;;;6271656;22;20034;-76
2022/09/25 02:14:19;;;;;;;3.03;1.10;;;12.10;99.90;;;;;;6218082;22;20051;-76
2022/09/25 02:16:49;;;;;;;4.07;1.20;;;12.00;99.90;;;;;;6219569;22;20097;-76
2022/09/25 02:22:18;;;;;;;3.72;1.08;;;11.90;99.90;;;;;;6244565;22;20016;-76
2022/09/25 02:24:59;;;;;;;4.80;1.23;;;11.90;99.90;;;;;;6271669;22;20082;-76
2022/09/25 02:27:28;;;;;;;4.07;1.27;;;11.80;99.90;;;;;;6244678;22;20024;-76
2022/09/25 02:29:55;;;;;;;4.22;1.30;;;11.80;99.90;;;;;;6245672;22;20019;-76
2022/09/25 02:32:25;;;;;;;2.75;1.10;;;11.70;99.90;;;;;;6244869;22;20016;-76
2022/09/25 02:34:51;;;;;;;3.65;1.00;;;11.70;99.90;;;;;;6244819;22;20018;-76
2022/09/25 02:37:17;;;;;;;4.20;1.27;;;11.60;99.90;;;;;;6244528;22;20145;-76
2022/09/25 02:39:48;;;;;;;4.82;1.40;;;11.60;99.90;;;;;;6219401;22;20015;-76
2022/09/25 02:42:48;;;;;;;2.17;0.82;;;11.50;99.90;;;;;;6271391;22;20058;-76
2022/09/25 02:45:33;;;;;;;3.95;1.13;;;11.50;99.90;;;;;;6218767;22;20039;-76
2022/09/25 02:48:12;;;;;;;4.70;1.40;;;11.50;99.90;;;;;;6220075;22;20023;-74
2022/09/25 02:51:03;;;;;;;3.50;1.02;;;11.50;99.90;;;;;;6218395;22;20020;-74
2022/09/25 02:53:41;;;;;;;4.05;1.08;;;11.40;99.90;;;;;;6220141;22;20059;-74
2022/09/25 02:56:23;;;;;;;5.03;1.20;;;11.40;99.90;;;;;;6219219;22;20027;-74
2022/09/25 02:58:51;;;;;;;7.10;1.70;;;11.40;99.90;;;;;;6218946;22;20081;-74
2022/09/25 03:01:21;;;;;;;3.70;1.10;;;11.30;99.90;;;;;;6243912;22;20103;-74
2022/09/25 03:03:48;;;;;;;7.18;1.45;;;11.30;99.90;;;;;;6244530;22;20043;-74
2022/09/25 03:06:14;;;;;;;6.50;1.00;;;11.30;99.90;;;;;;6274317;22;20020;-74
2022/09/25 03:08:45;;;;;;;4.18;1.23;;;11.30;99.90;;;;;;6274194;22;20157;-74
2022/09/25 03:11:14;;;;;;;4.13;1.15;;;11.30;99.90;;;;;;6247918;22;20354;-74
2022/09/25 03:13:41;;;;;;;6.00;1.30;;;11.40;99.90;;;;;;6247338;22;20023;-74
2022/09/25 03:16:19;;;;;;;7.30;1.20;;;11.40;99.90;;;;;;6274221;22;20022;-75
2022/09/25 03:18:46;;;;;;;3.13;1.10;;;11.40;99.90;;;;;;6222168;22;20469;-75
2022/09/25 03:21:12;;;;;;;6.47;1.40;;;11.40;99.90;;;;;;6221817;22;20016;-75
2022/09/25 03:23:38;;;;;;;5.68;1.17;;;11.50;99.90;;;;;;6246598;22;20182;-75
2022/09/25 03:26:04;;;;;;;6.22;1.50;;;11.40;99.90;;;;;;6246438;22;20012;-74
2022/09/25 03:28:30;;;;;;;7.93;1.42;;;11.40;99.90;;;;;;6220637;22;20019;-75
2022/09/25 03:30:57;;;;;;;3.35;1.30;;;11.40;99.90;;;;;;6247648;22;20027;-75
2022/09/25 03:33:23;;;;;;;6.28;1.13;;;11.40;99.90;;;;;;6246279;22;20776;-74
2022/09/25 03:36:03;;;;;;;4.00;1.20;;;11.40;99.90;;;;;;6273298;22;20016;-75
2022/09/25 03:38:29;;;;;;;3.85;1.20;;;11.40;99.90;;;;;;6245856;22;20037;-75
2022/09/25 03:40:55;;;;;;;4.60;1.60;;;11.40;99.90;;;;;;6246265;22;20031;-75
2022/09/25 03:43:20;;;;;;;3.58;1.33;;;11.40;99.90;;;;;;6195284;22;20119;-75
2022/09/25 03:45:46;;;;;;;7.47;1.33;;;11.40;99.90;;;;;;6245026;22;20015;-75
2022/09/25 03:48:12;;;;;;;6.47;1.30;;;11.40;99.90;;;;;;6196083;22;20076;-75
2022/09/25 03:50:38;;;;;;;7.68;1.40;;;11.40;99.90;;;;;;6244913;22;20465;-75
2022/09/25 03:53:04;;;;;;;7.40;1.25;;;11.40;99.90;;;;;;6245952;22;20113;-75
2022/09/25 03:55:29;;;;;;;3.53;1.48;;;11.30;99.90;;;;;;6195398;22;20465;-75
2022/09/25 03:57:55;;;;;;;3.50;1.30;;;11.30;99.90;;;;;;6246216;22;20106;-75
2022/09/25 04:00:22;;;;;;;6.47;1.60;;;11.30;99.90;;;;;;6245748;22;20046;-75
2022/09/25 04:02:49;;;;;;;5.80;1.30;;;11.30;99.90;;;;;;6246990;22;20073;-75
2022/09/25 04:05:15;;;;;;;3.08;1.20;;;11.20;99.90;;;;;;6245917;22;20016;-75
2022/09/25 04:07:41;;;;;;;5.25;1.83;;;11.20;99.90;;;;;;6245520;22;20526;-75
2022/09/25 04:10:07;;;;;;;4.15;1.27;;;11.20;99.90;;;;;;6205515;23;20028;-75
2022/09/25 04:12:33;;;;;;;6.50;1.60;;;11.20;99.90;;;;;;6209917;23;20046;-74
2022/09/25 04:14:58;;;;;;;4.28;1.63;;;11.10;99.90;;;;;;6210363;23;20452;-75
2022/09/25 04:17:24;;;;;;;3.70;1.15;;;11.10;99.90;;;;;;6210925;23;20116;-75
2022/09/25 04:19:51;;;;;;;3.95;1.05;;;11.10;99.90;;;;;;6212376;23;20325;-75
2022/09/25 04:22:17;;;;;;;4.78;1.58;;;11.10;99.90;;;;;;6212219;23;20028;-75
2022/09/25 04:24:48;;;;;;;2.53;1.10;;;11.00;99.90;;;;;;6185768;23;20344;-75
2022/09/25 04:27:17;;;;;;;2.55;1.10;;;11.00;99.90;;;;;;6186260;23;20031;-75
2022/09/25 04:29:44;;;;;;;4.75;1.30;;;11.00;99.90;;;;;;6185204;23;20019;-76
2022/09/25 04:34:54;;;;;;;4.70;1.00;;;10.90;99.90;;;;;;6191101;23;20024;-75
2022/09/25 04:37:25;;;;;;;1.65;0.80;;;10.80;99.90;;;;;;6161409;23;20023;-75
2022/09/25 04:39:52;;;;;;;3.33;1.20;;;10.80;99.90;;;;;;6187071;23;20466;-75
2022/09/25 04:42:19;;;;;;;3.45;1.33;;;10.80;99.90;;;;;;6212216;23;20032;-75
2022/09/25 04:44:45;;;;;;;3.22;1.27;;;10.80;99.90;;;;;;6183743;23;20024;-75
2022/09/25 04:47:12;;;;;;;3.08;1.30;;;10.70;99.90;;;;;;6210330;23;20463;-75
2022/09/25 04:49:37;;;;;;;3.42;1.23;;;10.70;99.90;;;;;;6184905;23;20024;-75
2022/09/25 04:52:03;;;;;;;2.65;1.10;;;10.60;99.90;;;;;;6184788;23;20091;-75
2022/09/25 04:54:30;;;;;;;4.00;1.20;;;10.80;99.90;;;;;;6184719;23;20024;-75
2022/09/25 04:56:56;;;;;;;2.38;1.30;;;10.60;99.90;;;;;;6159907;23;20020;-75
2022/09/25 04:59:22;;;;;;;4.60;1.25;;;10.60;99.90;;;;;;6184878;23;20016;-75
2022/09/25 05:01:48;;;;;;;4.18;1.30;;;10.60;99.90;;;;;;6211641;23;20023;-75
2022/09/25 05:04:15;;;;;;;6.60;1.52;;;10.50;99.90;;;;;;6184782;23;20333;-75
2022/09/25 05:06:41;;;;;;;2.65;1.40;;;10.50;99.90;;;;;;6209361;23;20016;-75
2022/09/25 05:09:06;;;;;;;3.63;1.25;;;10.50;99.90;;;;;;6160149;23;20021;-75
2022/09/25 05:11:32;;;;;;;2.38;1.38;;;10.40;99.90;;;;;;6209076;23;20024;-75
2022/09/25 05:13:58;;;;;;;4.93;1.40;;;10.40;99.90;;;;;;6209485;23;20024;-75
2022/09/25 05:16:23;;;;;;;2.72;1.13;;;10.40;99.90;;;;;;6209869;23;20024;-75
2022/09/25 05:18:49;;;;;;;3.53;1.30;;;10.40;99.90;;;;;;6160161;23;20436;-75
2022/09/25 05:21:15;;;;;;;3.35;1.33;;;10.40;99.90;;;;;;6210105;23;20024;-75
2022/09/25 05:23:41;;;;;;;3.65;1.42;;;10.40;99.90;;;;;;6209848;23;20103;-75
2022/09/25 05:26:06;;;;;;;4.80;1.35;;;10.40;99.90;;;;;;6209666;23;20016;-75
2022/09/25 05:28:32;;;;;;;3.88;1.40;;;10.40;99.90;;;;;;6184460;23;20024;-75
2022/09/25 05:31:02;;;;;;;3.67;1.67;;;10.40;99.90;;;;;;6208582;23;20324;-76
2022/09/25 05:33:29;;;;;;;3.60;1.83;;;10.40;99.90;;;;;;6182854;23;20040;-75
2022/09/25 05:35:58;;;;;;;4.72;1.40;;;10.50;99.90;;;;;;6183367;23;20055;-75
2022/09/25 05:38:24;;;;;;;7.10;1.58;;;10.50;99.90;;;;;;6207805;23;20020;-77
2022/09/25 05:40:51;;;;;;;2.72;1.48;;;10.60;99.90;;;;;;6205682;23;20047;-77
2022/09/25 05:43:17;;;;;;;3.53;2.17;;;10.60;99.90;;;;;;6158699;23;20055;-77
2022/09/25 05:45:43;;;;;;;4.15;1.65;;;10.60;99.90;;;;;;6184479;23;20029;-76
2022/09/25 05:48:09;;;;;;;4.30;1.35;;;10.60;99.90;;;;;;6160847;23;20027;-76
2022/09/25 05:50:35;;;;;;;3.78;1.27;;;10.70;99.90;;;;;;6186124;23;20570;-77
2022/09/25 05:53:04;;;;;;;3.08;1.40;;;10.80;99.90;;;;;;6186670;23;20070;-77
2022/09/25 05:55:30;;;;;;;3.88;1.33;;;10.90;99.90;;;;;;6212471;23;20028;-77
2022/09/25 05:58:00;;;;;;;4.28;1.40;;;11.00;99.90;;;;;;6160859;23;20028;-76
2022/09/25 06:00:26;;;;;;;3.67;1.50;;;11.10;99.90;;;;;;6184546;23;20342;-79
2022/09/25 06:02:52;;;;;;;5.07;1.63;;;11.20;99.90;;;;;;6208783;23;20013;-76
2022/09/25 06:05:18;;;;;;;5.07;1.25;;;11.30;99.90;;;;;;6184082;23;20017;-77
2022/09/25 06:07:44;;;;;;;3.25;1.20;;;11.40;99.90;;;;;;6134452;23;20020;-77
2022/09/25 06:10:10;;;;;;;4.00;1.88;;;11.40;99.90;;;;;;6159083;23;20040;-76
2022/09/25 06:12:36;;;;;;;5.10;1.40;;;11.50;99.90;;;;;;6209695;23;20040;-75
2022/09/25 06:15:01;;;;;;;3.80;1.40;;;11.50;99.90;;;;;;6210832;23;20021;-75
2022/09/25 06:17:27;;;;;;;5.13;1.40;;;11.60;99.90;;;;;;6208449;23;20025;-75
2022/09/25 06:19:53;;;;;;;2.67;1.35;;;11.60;99.90;;;;;;6183737;23;20017;-75
2022/09/25 06:22:19;;;;;;;6.78;2.03;;;11.70;99.90;;;;;;6183980;23;20028;-75
2022/09/25 06:24:44;;;;;;;5.38;1.60;;;11.70;99.90;;;;;;6182252;23;20021;-75
2022/09/25 06:27:10;;;;;;;4.15;1.40;;;11.80;99.90;;;;;;6181495;23;20016;-76
2022/09/25 06:29:36;;;;;;;4.45;1.63;;;11.90;99.90;;;;;;6132693;23;20025;-75
2022/09/25 06:32:02;;;;;;;6.00;1.40;;;11.90;99.90;;;;;;6182951;23;20020;-77
2022/09/25 06:34:28;;;;;;;5.00;1.30;;;11.90;99.90;;;;;;6207771;23;20023;-76
2022/09/25 06:36:54;;;;;;;7.00;1.30;;;11.90;99.90;;;;;;6207859;23;20044;-77
2022/09/25 06:39:19;;;;;;;3.00;1.23;;;11.90;99.90;;;;;;6183047;23;20017;-77
2022/09/25 06:41:45;;;;;;;2.53;1.05;;;11.90;99.90;;;;;;6208842;23;20020;-77
2022/09/25 06:44:11;;;;;;;2.75;1.10;;;11.90;99.90;;;;;;6209134;23;20074;-76
2022/09/25 06:46:37;;;;;;;3.40;1.17;;;12.00;99.90;;;;;;6184450;23;20017;-76
2022/09/25 06:49:03;;;;;;;5.05;1.42;;;12.00;99.90;;;;;;6209483;23;20020;-77
2022/09/25 06:51:33;;;;;;;3.70;1.20;;;12.00;99.90;;;;;;6211350;23;20107;-76
2022/09/25 06:54:00;;;;;;;3.78;1.50;;;12.10;99.90;;;;;;6186050;23;20025;-76
2022/09/25 06:56:25;;;;;;;9.57;1.55;;;12.10;99.90;;;;;;6210097;23;20017;-76
2022/09/25 06:58:51;;;;;;;4.10;1.17;;;12.20;99.90;;;;;;6158332;23;20027;-76
2022/09/25 07:01:17;;;;;;;5.20;1.10;;;12.20;99.90;;;;;;6208765;23;20067;-76
2022/09/25 07:03:46;;;;;;;3.15;1.00;;;12.20;99.90;;;;;;6157998;23;20523;-75
2022/09/25 07:06:18;;;;;;;4.55;1.67;;;12.40;99.90;;;;;;6160555;23;20087;-76
2022/09/25 07:08:46;;;;;;;5.05;1.13;;;12.50;99.90;;;;;;6207715;23;20460;-76
2022/09/25 07:11:19;;;;;;;3.97;1.20;;;12.60;99.90;;;;;;6209241;23;20490;-76
2022/09/25 07:13:46;;;;;;;3.03;1.10;;;12.70;99.90;;;;;;6206777;23;20029;-75
2022/09/25 07:16:17;;;;;;;3.80;1.80;;;12.80;99.90;;;;;;6208666;23;20021;-75
2022/09/25 07:18:43;;;;;;;5.95;3.17;;;13.00;99.90;;;;;;6207538;23;20028;-75
2022/09/25 07:21:14;;;;;;;2.97;1.20;;;13.10;99.90;;;;;;6208181;23;20020;-75
2022/09/25 07:23:41;;;;;;;3.72;1.20;;;13.30;99.90;;;;;;6208527;23;20020;-75
2022/09/25 07:26:11;;;;;;;4.53;1.00;;;13.30;99.90;;;;;;6209587;23;20100;-75
2022/09/25 07:28:38;;;;;;;6.47;1.13;;;13.40;99.90;;;;;;6207876;23;20554;-75
2022/09/25 07:31:19;;;;;;;6.68;1.10;;;13.50;99.90;;;;;;6208556;23;20055;-75
2022/09/25 07:33:46;;;;;;;2.55;0.90;;;13.60;99.90;;;;;;6183397;23;20020;-75
2022/09/25 07:36:13;;;;;;;3.05;0.77;;;13.70;99.90;;;;;;6207830;23;20028;-75
2022/09/25 07:38:40;;;;;;;2.50;0.98;;;13.70;99.90;;;;;;6208567;23;20012;-75
2022/09/25 07:41:09;;;;;;;3.17;0.88;;;13.70;99.90;;;;;;6207344;23;20474;-75
2022/09/25 07:43:37;;;;;;;4.75;1.30;;;13.80;99.90;;;;;;6207133;23;20541;-75
2022/09/25 07:46:03;;;;;;;4.35;0.98;;;13.80;99.90;;;;;;6207409;23;20511;-75
2022/09/25 07:48:30;;;;;;;2.78;1.00;;;13.80;99.90;;;;;;6205878;23;20518;-75
2022/09/25 07:51:04;;;;;;;3.05;1.10;;;13.90;99.90;;;;;;6206166;23;20025;-75
2022/09/25 07:53:30;;;;;;;4.43;1.15;;;14.00;99.90;;;;;;6206491;23;20466;-76
2022/09/25 07:56:00;;;;;;;4.10;1.00;;;14.10;99.90;;;;;;6207916;23;20033;-76
2022/09/25 07:58:27;;;;;;;4.18;1.50;;;14.10;99.90;;;;;;6185051;23;20016;-77
2022/09/25 08:00:57;;;;;;;4.45;1.55;;;14.20;99.90;;;;;;6184080;23;20104;-76
2022/09/25 08:03:23;;;;;;;3.03;1.00;;;14.30;99.90;;;;;;6182310;23;20022;-76
2022/09/25 08:06:00;;;;;;;3.28;0.90;;;14.40;99.90;;;;;;6158997;23;20020;-76
2022/09/25 08:08:27;;;;;;;4.45;1.02;;;14.40;99.90;;;;;;6184638;23;20063;-76
2022/09/25 08:11:02;;;;;;;5.32;0.90;;;14.40;99.90;;;;;;6189332;23;20025;-75
2022/09/25 08:13:31;;;;;;;5.53;1.10;;;14.30;99.90;;;;;;6207435;23;20083;-75
2022/09/25 08:15:57;;;;;;;2.05;0.85;;;14.30;99.90;;;;;;6183245;23;20017;-75
2022/09/25 08:18:22;;;;;;;2.85;0.73;;;14.30;99.90;;;;;;6208984;23;20023;-76
2022/09/25 08:20:48;;;;;;;1.88;0.80;;;14.30;99.90;;;;;;6183861;23;20016;-79
2022/09/25 08:23:14;;;;;;;1.88;0.60;;;14.30;99.90;;;;;;6209595;23;20112;-77
2022/09/25 08:25:40;;;;;;;3.38;0.80;;;14.30;99.90;;;;;;6209251;23;20016;-77
2022/09/25 08:28:05;;;;;;;2.17;0.70;;;14.30;99.90;;;;;;6210360;23;20448;-77
2022/09/25 08:30:31;;;;;;;2.53;0.60;;;14.30;99.90;;;;;;6212671;23;20021;-78
2022/09/25 08:32:57;;;;;;;1.27;0.60;;;14.30;99.90;;;;;;6185409;23;20104;-77
2022/09/25 08:35:23;;;;;;;2.15;0.80;;;14.20;99.90;;;;;;6185163;23;20028;-78
2022/09/25 08:37:49;;;;;;;2.90;0.70;;;14.30;99.90;;;;;;6209996;23;20048;-77
2022/09/25 08:40:17;;;;;;;2.40;0.68;;;14.50;99.90;;;;;;6135649;23;20090;-77
2022/09/25 08:42:46;;;;;;;3.45;0.95;;;15.50;99.90;;;;;;6185775;23;20325;-77
2022/09/25 08:51:06;;;;;;;2.30;0.90;;;15.80;99.90;;;;;;6209603;23;20440;-77
2022/09/25 08:53:33;;;;;;;4.38;0.85;;;16.10;99.90;;;;;;6160230;23;20028;-76
2022/09/25 08:56:14;;;;;;;3.28;1.10;;;16.40;99.90;;;;;;6209278;23;20518;-78
2022/09/25 08:58:45;;;;;;;4.43;0.90;;;16.70;99.90;;;;;;6209723;23;20433;-79
2022/09/25 09:01:18;;;;;;;4.55;1.10;;;17.00;99.90;;;;;;6184751;23;20055;-78
2022/09/25 09:03:55;;;;;;;5.38;2.75;;;17.30;99.90;;;;;;6208902;23;20051;-79
2022/09/25 09:06:24;;;;;;;4.93;1.92;;;17.50;99.90;;;;;;6184893;23;20016;-82
2022/09/25 09:09:05;;;;;;;8.93;2.17;;;17.70;99.90;;;;;;6208740;23;20035;-79
2022/09/25 09:11:56;;;;;;;4.00;1.85;;;17.80;99.90;;;;;;6184303;23;20023;-77
2022/09/25 09:14:28;;;;;;;4.05;1.80;;;18.10;99.90;;;;;;6208446;23;20017;-78
2022/09/25 09:16:57;;;;;;;6.78;1.50;;;18.10;99.90;;;;;;6208904;23;20384;-77
2022/09/25 09:19:23;;;;;;;2.92;1.00;;;18.10;99.90;;;;;;6184579;23;20059;-78
2022/09/25 09:21:52;;;;;;;1.50;0.70;;;18.10;99.90;;;;;;6208891;23;20020;-77
2022/09/25 09:24:46;;;;;;;3.72;0.98;;;18.00;99.90;;;;;;6208814;23;20027;-76
2022/09/25 09:27:24;;;;;;;2.78;0.70;;;18.00;99.90;;;;;;6183751;23;20020;-76
2022/09/25 09:29:53;;;;;;;3.58;0.98;;;18.00;99.90;;;;;;6207984;23;20436;-76
2022/09/25 09:33:00;;;;;;;2.75;0.77;;;17.90;99.90;;;;;;6183945;23;20024;-76
2022/09/25 09:35:45;;;;;;;2.33;0.70;;;17.90;99.90;;;;;;6181617;23;20028;-77
2022/09/25 09:38:43;;;;;;;4.18;1.00;;;17.90;99.90;;;;;;6183486;23;20023;-76
2022/09/25 09:41:37;;;;;;;2.00;0.63;;;18.00;99.90;;;;;;6208462;23;20147;-77
2022/09/25 09:44:20;;;;;;;5.25;0.73;;;18.10;99.90;;;;;;6182110;23;20020;-78
2022/09/25 09:47:13;;;;;;;4.65;0.75;;;18.20;99.90;;;;;;6180276;23;20303;-77
2022/09/25 09:49:50;;;;;;;3.95;0.60;;;18.40;99.90;;;;;;6204331;23;20123;-78
2022/09/25 09:52:22;;;;;;;4.15;0.90;;;18.50;99.90;;;;;;6179659;23;20029;-77
2022/09/25 09:54:54;;;;;;;2.15;0.70;;;18.50;99.90;;;;;;6179997;23;20106;-75
2022/09/25 09:57:34;;;;;;;3.13;0.80;;;18.60;99.90;;;;;;6181040;23;20024;-76
2022/09/25 10:00:04;;;;;;;1.73;0.70;;;18.60;99.90;;;;;;6205196;23;20044;-76
2022/09/25 10:02:36;;;;;;;3.78;0.70;;;18.70;99.90;;;;;;6209219;23;20368;-76
2022/09/25 10:05:08;;;;;;;3.25;0.70;;;18.70;99.90;;;;;;6207980;23;20349;-77
2022/09/25 10:07:37;;;;;;;2.70;0.70;;;18.80;99.90;;;;;;6210913;23;20021;-77
2022/09/25 10:10:13;;;;;;;3.97;1.10;;;18.90;99.90;;;;;;6183792;23;20043;-77
2022/09/25 10:12:40;;;;;;;;;;;18.80;99.90;;;;;;6209646;23;20028;-76
2022/09/25 10:15:33;;;;;;;3.85;0.70;;;18.60;99.90;;;;;;6209917;23;19982;-76
2022/09/25 10:18:00;;;;;;;4.90;1.20;;;18.40;99.90;;;;;;6207567;23;20025;-76
2022/09/25 10:20:35;;;;;;;4.10;0.98;;;18.00;99.90;;;;;;6209984;23;20020;-76
2022/09/25 10:23:03;;;;;;;4.22;1.17;;;17.80;99.90;;;;;;6208665;23;20027;-76
2022/09/25 10:25:39;;;;;;;4.18;1.05;;;17.70;99.90;;;;;;6183691;23;20525;-76
2022/09/25 10:28:21;;;;;;;;;;;17.70;99.90;;;;;;6183335;23;20039;-77
2022/09/25 10:30:47;;;;;;;5.75;1.00;;;17.70;99.90;;;;;;6207917;23;20397;-76
2022/09/25 10:33:19;;;;;;;3.70;0.98;;;17.60;99.90;;;;;;6206386;23;20013;-78
2022/09/25 10:35:46;;;;;;;3.00;1.20;;;17.60;99.90;;;;;;6207209;23;20032;-78
2022/09/25 10:38:38;;;;;;;3.47;1.10;;;17.80;99.90;;;;;;6180320;23;20112;-78
2022/09/25 10:41:16;;;;;;;3.80;1.02;;;17.90;99.90;;;;;;6204263;23;20596;-78
2022/09/25 10:43:58;;;;;;;3.13;0.68;;;18.10;99.90;;;;;;6208760;23;20023;-78
2022/09/25 10:52:10;;;;;;;3.33;0.85;;;18.90;99.90;;;;;;6205259;23;20024;-78
2022/09/25 10:54:36;;;;;;;3.78;1.00;;;19.20;99.90;;;;;;6206278;23;20395;-76
2022/09/25 10:57:16;;;;;;;4.45;0.95;;;19.50;99.90;;;;;;6179839;23;20058;-77
2022/09/25 10:59:49;;;;;;;2.50;0.70;;;20.00;99.90;;;;;;6204526;23;20016;-77
2022/09/25 11:02:44;;;;;;;4.57;1.10;;;20.50;99.90;;;;;;6207093;23;20115;-76
2022/09/25 11:05:19;;;;;;;4.30;0.88;;;20.80;99.90;;;;;;6198813;23;20040;-77
2022/09/25 11:07:53;;;;;;;3.60;0.95;;;21.20;99.90;;;;;;6208344;23;20030;-77
2022/09/25 11:10:26;;;;;;;4.03;0.98;;;21.40;99.90;;;;;;6207902;23;20025;-77
2022/09/25 11:12:53;;;;;;;3.08;1.10;;;21.70;99.90;;;;;;6209271;23;20025;-77
2022/09/25 11:15:22;;;;;;;2.40;0.75;;;21.70;99.90;;;;;;6183421;23;20017;-76
2022/09/25 11:17:54;;;;;;;3.92;0.70;;;21.80;99.90;;;;;;6210604;23;20032;-77
2022/09/25 11:20:30;;;;;;;3.97;0.80;;;22.20;99.90;;;;;;6209102;23;20519;-77
2022/09/25 11:23:29;;;;;;;6.72;0.98;;;22.70;99.80;;;;;;6209390;23;20017;-78
2022/09/25 11:26:24;;;;;;;3.35;0.90;;;22.40;97.30;;;;;;6184978;23;20103;-77
2022/09/25 11:28:56;;;;;;;3.13;0.60;;;22.20;96.90;;;;;;6208615;23;20095;-77
2022/09/25 11:31:39;;;;;;;2.47;1.02;;;22.20;97.20;;;;;;6210198;23;20244;-77
2022/09/25 11:34:57;;;;;;;2.63;1.20;;;22.30;96.30;;;;;;6210149;23;20025;-77
2022/09/25 11:37:47;;;;;;;1.98;0.98;;;22.30;95.70;;;;;;6093293;23;20071;-77
2022/09/25 11:43:08;;;;;;;3.60;0.73;;;23.00;95.90;;;;;;6209918;23;20024;-76
2022/09/25 11:45:50;;;;;;;2.83;0.80;;;23.60;95.60;;;;;;6210788;23;20019;-77
2022/09/25 11:48:49;;;;;;;3.38;0.75;;;24.10;93.40;;;;;;6185102;23;20024;-77
2022/09/25 11:51:49;;;;;;;4.30;0.57;;;24.50;92.20;;;;;;6178274;23;20122;-77
2022/09/25 11:54:37;;;;;;;3.00;0.65;;;24.70;90.30;;;;;;6209144;23;20095;-77
2022/09/25 11:57:12;;;;;;;2.60;0.65;;;24.70;91.50;;;;;;6183077;23;20448;-77
2022/09/25 11:59:57;;;;;;;2.10;0.90;;;24.80;90.70;;;;;;6184527;23;20026;-78
2022/09/25 12:02:43;;;;;;;2.10;0.70;;;24.50;88.20;;;;;;6184125;23;20023;-77
2022/09/25 12:05:27;;;;;;;3.03;0.70;;;24.50;89.30;;;;;;6209692;23;20456;-78
2022/09/25 12:08:02;;;;;;;2.90;0.70;;;24.70;89.70;;;;;;6209115;23;20013;-77
2022/09/25 12:10:47;;;;;;;1.48;0.50;;;25.10;84.80;;;;;;6209889;23;20025;-77
2022/09/25 12:13:29;;;;;;;1.60;0.60;;;25.50;86.70;;;;;;6184667;23;20614;-77
2022/09/25 12:16:19;;;;;;;1.70;0.77;;;25.80;83.90;;;;;;6185680;23;20017;-77
2022/09/25 12:18:51;;;;;;;2.05;0.70;;;26.00;81.30;;;;;;6185137;23;20021;-77
2022/09/25 12:21:55;;;;;;;3.10;0.93;;;26.20;82.60;;;;;;6210210;23;20025;-77
2022/09/25 12:24:31;;;;;;;2.97;0.70;;;26.00;78.40;;;;;;6209959;23;20020;-77
2022/09/25 12:27:35;;;;;;;3.42;0.93;;;26.00;80.50;;;;;;6185967;23;20020;-77
2022/09/25 12:30:15;;;;;;;5.82;0.88;;;26.30;77.30;;;;;;6171222;23;20030;-78
2022/09/25 12:32:52;;;;;;;3.47;0.75;;;26.40;77.90;;;;;;6212433;23;20021;-77
2022/09/25 12:35:56;;;;;;;1.73;0.40;;;27.00;78.20;;;;;;6185126;23;20119;-77
2022/09/25 12:38:37;;;;;;;4.63;0.70;;;27.30;75.70;;;;;;6209701;23;20075;-77
2022/09/25 12:41:15;;;;;;;2.92;0.75;;;27.80;75.10;;;;;;6210269;23;20044;-77
2022/09/25 12:43:46;;;;;;;2.75;0.80;;;27.90;73.50;;;;;;6209524;23;20017;-77
2022/09/25 12:46:38;;;;;;;1.95;0.65;;;28.20;73.60;;;;;;6184454;23;20055;-78
2022/09/25 12:49:17;;;;;;;2.58;0.50;;;28.10;70.40;;;;;;6209235;23;20020;-77
2022/09/25 12:51:46;;;;;;;3.10;0.50;;;27.80;68.50;;;;;;6210148;23;20016;-77
2022/09/25 12:54:24;;;;;;;2.63;0.60;;;27.60;71.40;;;;;;6209501;23;20052;-77
2022/09/25 12:57:25;;;;;;;2.15;0.68;;;27.60;71.10;;;;;;6185037;23;20459;-77
2022/09/25 12:59:56;;;;;;;2.50;0.52;;;27.40;67.00;;;;;;6162591;23;20094;-77
2022/09/25 13:02:41;;;;;;;1.42;0.52;;;27.30;70.70;;;;;;6210431;23;20474;-78
2022/09/25 13:05:25;;;;;;;3.92;0.73;;;27.30;70.60;;;;;;6184763;23;20070;-78
2022/09/25 13:07:59;;;;;;;1.95;0.70;;;27.40;69.40;;;;;;6185387;23;20016;-78
2022/09/25 13:10:37;;;;;;;2.22;1.02;;;27.70;70.30;;;;;;6210008;22;20013;-78
2022/09/25 13:13:09;;;;;;;2.30;0.60;;;27.90;70.20;;;;;;6210277;23;20078;-78
2022/09/25 13:15:37;;;;;;;2.60;0.65;;;27.60;69.20;;;;;;6210992;23;20020;-77
2022/09/25 13:18:05;;;;;;;2.33;0.60;;;27.10;69.20;;;;;;6185240;23;20021;-77
2022/09/25 13:20:35;;;;;;;2.55;0.75;;;26.30;69.40;;;;;;6209672;23;20122;-78
2022/09/25 13:23:12;;;;;;;1.88;0.70;;;25.60;70.70;;;;;;6209334;23;20020;-80
2022/09/25 13:25:50;;;;;;;2.63;0.68;;;25.00;71.60;;;;;;6185814;23;20317;-80
2022/09/25 13:28:22;;;;;;;3.13;0.57;;;24.50;71.60;;;;;;6184641;23;20616;-80
2022/09/25 13:31:06;;;;;;;1.50;0.50;;;23.80;72.60;;;;;;6209846;23;20016;-77
2022/09/25 13:33:48;;;;;;;3.40;0.65;;;23.20;73.30;;;;;;6209074;23;20031;-78
2022/09/25 13:36:22;;;;;;;1.77;0.70;;;22.70;75.10;;;;;;6184351;23;20024;-78
2022/09/25 13:41:54;;;;;;;2.22;0.50;;;21.90;78.80;;;;;;6209625;23;20025;-77